Terminal Aerodrome Forecast
Issued by NWS Atlanta, GA

Home | Current Version | Previous Version | Text Only | Print | Product List | Glossary On
Versions: 1 2 3 4 5 6 7 8 9 10 11 12 13 14 15 16 17 18 19 20 21 22 23 24 25 26 27 28 29 30 31 32 33 34 35 36 37 38
000
FTUS42 KFFC 301137
TAFATL
TAF
KATL 301137Z 3012/3118 26004KT P6SM SCT100 SCT250
     FM301500 28007KT P6SM BKN035
     FM301800 27009KT P6SM BKN050
      TEMPO 3019/3023 5SM -TSRA BKN035CB
     FM310000 24005KT P6SM SCT070 SCT250
     FM311400 26006KT P6SM SCT040=

USA.gov is the U.S. government's official web portal to all federal, state and local government web resources and services.